Hemling, Sweden

3:14 AM CEST on August 30, 2016 (GMT +0200)
Eldsmark | | Change Station

Elev 312 ft 63.46 °N, 19.06 °E | Updated 14 seconds ago

Clear
Clear
36.0 °F
Feels Like 36 °F
N
0.0
Wind Variable Wind from ESE
Gusts 0.0 mph

Today
High -- | Low -- °F
--% Chance of Precip.
Yesterday
High -- | Low -- °F
Precip. -- in
Pressure 29.77 in
Visibility 6.2 miles
Clouds
Windchill 36 °F
Dew Point 35 °F
Humidity 97%
Rainfall 0.00 in
Snow Depth Not available.
5:24 AM 8:05 PM
Waning Crescent, 6% visible
METAR ESNO 300050Z AUTO 27003KT 9999 NCD 03/02 Q1008
Pressure 29.77 in
Visibility 6.2 miles
Clouds
Windchill 36 °F
Dew Point 35 °F
Humidity 97%
Rainfall 0.00 in
Snow Depth Not available.
5:24 AM 8:05 PM
Waning Crescent, 6% visible
METAR ESNO 300050Z AUTO 27003KT 9999 NCD 03/02 Q1008

10-Day Weather Forecast

×

Almanac

Astronomy

Aug. 30, 2016 Rise Set
Actual Time
Civil Twilight
Nautical Twilight
Astronomical Twilight
Moon
Length of Visible Light
Length of Day
Tomorrow will be .
, % of the Moon is Illuminated

Today's Extremes

Country Highs Country Lows

Community

WunderPhotos

Upload Photos

1,935,709 photos uploaded!

WunderBlog® & News

Nearby

Air Quality

  Air Quality AQ Index Pollutant
Not available.

Snow Depth

Station Depth Elevation

Earthquake Activity

City Distance Mag. Time & Date
Minimum magnitude displayed is 2.5.

Coastal Water Temperatures

Place Temperature

Stations

Nearby Weather Stations

Station Location Temp. Windchill Dew Point Humidity Wind Precip. Elev Updated Type